METAR stanice u blizini

 

LYBE - Beograd / Surčin, Srbija
Ažurirano: 03/07/2022 04:30
Vedro
Vedro
 Pravac vetra J
Vetar: J 9 km/h
Temperatura: 21°C
Tačka rose: 18°C
Vlažnost: 83%
Pritisak: 1018 hPa
Pregled: Vedro
Vidljivost: greater than 10 km
2022/07/03 02:30 LYBE 030230Z 19005KT CAVOK 21/18 Q1018 NOSIG
LYBT - Beograd / Batajnica, Srbija
Ažurirano: 03/07/2022 04:30
Vedro
Vedro
 Pravac vetra varies
Vetar: varies 2 km/h
Temperatura: 19°C
Tačka rose: 19°C
Vlažnost: 100%
Pritisak: 1018 hPa
Pregled: Vedro
Vidljivost: greater than 10 km
2022/07/03 02:30 LYBT 030230Z VRB01KT CAVOK 19/19 Q1018 NOSIG
LYVR - Vršac, Srbija
Ažurirano: 03/07/2022 04:30
Vedro
Vedro
 Pravac vetra JJZ
Vetar: JJZ 9 km/h
Temperatura: 22°C
Tačka rose: 18°C
Vlažnost: 78%
Pritisak: 1018 hPa
Pregled: Vedro
Vidljivost: greater than 10 km
2022/07/03 02:30 LYVR 030230Z AUTO 21005KT 170V230 CAVOK 22/18 Q1018
 
LYKV - Lađevci, Srbija
Ažurirano: 03/07/2022 04:30
Vedro
Vedro
 Pravac vetra SI
Vetar: SI 2 km/h
Temperatura: 18°C
Tačka rose: 18°C
Vlažnost: 100%
Pritisak: 1019 hPa
Pregled: Vedro
Vidljivost: greater than 10 km
2022/07/03 02:30 LYKV 030230Z 04001KT CAVOK 18/18 Q1019 NOSIG
LYNI - Niš, Srbija
Ažurirano: 03/07/2022 04:30
Vedro
Vedro
 Pravac vetra I
Vetar: I 9 km/h
Temperatura: 19°C
Tačka rose: 16°C
Vlažnost: 83%
Pritisak: 1019 hPa
Pregled: Vedro
Vidljivost: greater than 10 km
2022/07/03 02:30 LYNI 030230Z 08005KT CAVOK 19/16 Q1019 NOSIG
BKPR - Priština, Srbija
Ažurirano: 03/07/2022 04:30
Vedro
Vedro
 Pravac vetra varies
Vetar: varies 2 km/h
Temperatura: 17°C
Tačka rose: 14°C
Vlažnost: 83%
Pritisak: 1020 hPa
Pregled: Vedro
Vidljivost: greater than 10 km
2022/07/03 02:30 BKPR 030230Z VRB01KT CAVOK 17/14 Q1020 NOSIG
 
LHPP - Pecs / Pogany, Hungary
Ažurirano: 03/07/2022 04:15
Vedro
Vedro
 Pravac vetra SSI
Vetar: SSI 7 km/h
Temperatura: 20°C
Tačka rose: 13°C
Vlažnost: 64%
Pritisak: 1019 hPa
Pregled: Vedro
Vidljivost: greater than 10 km
2022/07/03 02:15 LHPP 030215Z AUTO 03004KT CAVOK 20/13 Q1019
LHUD - Szeged, Hungary
Ažurirano: 04/07/2019 01:45
NOT Current
Vedro
Vedro
 Pravac vetra S
Vetar: S 7 km/h
Temperatura: 18°C
Tačka rose: 13°C
Vlažnost: 73%
Pritisak: 1019 hPa
Pregled: Vedro
Vidljivost: greater than 10 km
2019/07/03 23:45 LHUD 032345Z 35004KT CAVOK 18/13 Q1019
LRTR - Timisoara, Romania
Ažurirano: 03/07/2022 04:30
Vedro
Vedro
 Pravac vetra IJI
Vetar: IJI 7 km/h
Temperatura: 19°C
Tačka rose: 19°C
Vlažnost: 100%
Pritisak: 1017 hPa
Pregled: Vedro
Vidljivost: greater than 10 km
2022/07/03 02:30 LRTR 030230Z 11004KT CAVOK 19/19 Q1017 NOSIG
 
LRCV - Craiova, Romania
Ažurirano: 03/07/2022 04:30
Mist, Delimično oblačno
Mist, Delimično oblačno
 Pravac vetra SZ
Vetar: SZ 2 km/h
Temperatura: 20°C
Tačka rose: 19°C
Vlažnost: 94%
Pritisak: 1018 hPa
Pregled: Mist
Oblaci: Partly Cloudy
Vidljivost: 5 km
2022/07/03 02:30 LRCV 030230Z 31001KT 5000 BR NSC 20/19 Q1018
LBSF - Sofia, Bulgaria
Ažurirano: 03/07/2022 04:30
Vedro
Vedro
 Pravac vetra calm
Vetar: Tišina
Temperatura: 16°C
Tačka rose: 15°C
Vlažnost: 94%
Pritisak: 1021 hPa
Oblaci: Vedro
Vidljivost: 10 km
2022/07/03 02:30 LBSF 030230Z AUTO 00000KT 9999 NCD 16/15 Q1021 NOSIG
LWSK - Skoplje, Makedonija
Ažurirano: 03/07/2022 04:30
Vedro
Vedro
 Pravac vetra varies
Vetar: varies 2 km/h
Temperatura: 18°C
Tačka rose: 17°C
Vlažnost: 94%
Pritisak: 1019 hPa
Pregled: Vedro
Vidljivost: greater than 10 km
2022/07/03 02:30 LWSK 030230Z VRB01KT CAVOK 18/17 Q1019 NOSIG
 
LYPG - Podgorica, Crna Gora
Ažurirano: 03/07/2022 04:30
Vedro
Vedro
 Pravac vetra SSI
Vetar: SSI 9 km/h
Temperatura: 26°C
Tačka rose: 13°C
Vlažnost: 45%
Pritisak: 1015 hPa
Pregled: Vedro
Vidljivost: greater than 10 km
2022/07/03 02:30 LYPG 030230Z 03005KT 350V080 CAVOK 26/13 Q1015 NOSIG
LQSA - Sarajevo, Bosna i Hercegovina
Ažurirano: 03/07/2022 04:00
Vedro
Vedro
 Pravac vetra IJI
Vetar: IJI 7 km/h
Temperatura: 18°C
Tačka rose: 16°C
Vlažnost: 88%
Pritisak: 1020 hPa
Pregled: Vedro
Vidljivost: greater than 10 km
2022/07/03 02:00 LQSA 030200Z 12004KT CAVOK 18/16 Q1020
LDOS - Osijek, Hrvatksa
Ažurirano: 03/07/2022 04:30
Vedro
Vedro
 Pravac vetra Z
Vetar: Z 6 km/h
Temperatura: 16°C
Tačka rose: 15°C
Vlažnost: 94%
Pritisak: 1018 hPa
Pregled: Vedro
Vidljivost: greater than 10 km
2022/07/03 02:30 LDOS 030230Z 28003KT CAVOK 16/15 Q1018